sensor_id;sensor_type;location;lat;lon;timestamp;pressure;altitude;pressure_sealevel;temperature;humidity
54144;BME280;40050;47.324;18.792;2023-06-24T00:00:09;1005.29;;;21.72;70.54
54144;BME280;40050;47.324;18.792;2023-06-24T00:02:10;1005.31;;;21.73;70.68
54144;BME280;40050;47.324;18.792;2023-06-24T00:04:11;1005.15;;;21.66;70.72
54144;BME280;40050;47.324;18.792;2023-06-24T00:06:12;1005.26;;;21.75;70.46
54144;BME280;40050;47.324;18.792;2023-06-24T00:08:13;1005.16;;;21.74;70.45
54144;BME280;40050;47.324;18.792;2023-06-24T00:10:14;1005.13;;;21.77;70.12
54144;BME280;40050;47.324;18.792;2023-06-24T00:12:15;1005.07;;;21.73;70.27
54144;BME280;40050;47.324;18.792;2023-06-24T00:14:16;1005.02;;;21.77;70.05
54144;BME280;40050;47.324;18.792;2023-06-24T00:16:17;1005.04;;;21.75;69.86
54144;BME280;40050;47.324;18.792;2023-06-24T00:18:18;1005.14;;;21.78;69.83
54144;BME280;40050;47.324;18.792;2023-06-24T00:20:19;1005.15;;;21.76;69.91
54144;BME280;40050;47.324;18.792;2023-06-24T00:22:20;1005.14;;;21.79;69.57
54144;BME280;40050;47.324;18.792;2023-06-24T00:24:21;1005.01;;;21.67;69.56
54144;BME280;40050;47.324;18.792;2023-06-24T00:26:22;1005.19;;;21.72;69.63
54144;BME280;40050;47.324;18.792;2023-06-24T00:28:23;1005.25;;;21.69;69.83
54144;BME280;40050;47.324;18.792;2023-06-24T00:30:25;1005.20;;;21.66;70.13
54144;BME280;40050;47.324;18.792;2023-06-24T00:32:26;1005.16;;;21.67;69.95
54144;BME280;40050;47.324;18.792;2023-06-24T00:34:27;1005.06;;;21.67;69.93
54144;BME280;40050;47.324;18.792;2023-06-24T00:36:28;1005.03;;;21.68;70.00
54144;BME280;40050;47.324;18.792;2023-06-24T00:38:29;1005.05;;;21.66;70.07
54144;BME280;40050;47.324;18.792;2023-06-24T00:40:30;1005.12;;;21.69;69.91
54144;BME280;40050;47.324;18.792;2023-06-24T00:42:31;1005.15;;;21.69;69.98
54144;BME280;40050;47.324;18.792;2023-06-24T00:44:32;1005.18;;;21.69;70.14
54144;BME280;40050;47.324;18.792;2023-06-24T00:46:33;1005.18;;;21.73;70.01
54144;BME280;40050;47.324;18.792;2023-06-24T00:48:35;1005.16;;;21.74;69.85
54144;BME280;40050;47.324;18.792;2023-06-24T00:50:36;1005.12;;;21.70;69.63
54144;BME280;40050;47.324;18.792;2023-06-24T00:52:36;1005.08;;;21.68;69.86
54144;BME280;40050;47.324;18.792;2023-06-24T00:54:37;1005.09;;;21.66;69.88
54144;BME280;40050;47.324;18.792;2023-06-24T00:56:38;1004.99;;;21.64;69.76
54144;BME280;40050;47.324;18.792;2023-06-24T00:58:39;1004.93;;;21.65;69.44
54144;BME280;40050;47.324;18.792;2023-06-24T01:00:44;1004.89;;;21.66;69.38
54144;BME280;40050;47.324;18.792;2023-06-24T01:02:46;1004.88;;;21.68;69.51
54144;BME280;40050;47.324;18.792;2023-06-24T01:04:48;1004.87;;;21.70;69.43
54144;BME280;40050;47.324;18.792;2023-06-24T01:06:49;1004.88;;;21.69;69.35
54144;BME280;40050;47.324;18.792;2023-06-24T01:08:50;1004.83;;;21.62;69.07
54144;BME280;40050;47.324;18.792;2023-06-24T01:10:51;1004.75;;;21.52;69.17
54144;BME280;40050;47.324;18.792;2023-06-24T01:12:52;1004.98;;;21.66;69.30
54144;BME280;40050;47.324;18.792;2023-06-24T01:14:53;1004.97;;;21.69;69.00
54144;BME280;40050;47.324;18.792;2023-06-24T01:16:59;1004.80;;;21.68;69.08
54144;BME280;40050;47.324;18.792;2023-06-24T01:19:17;1004.76;;;21.71;69.01
54144;BME280;40050;47.324;18.792;2023-06-24T01:23:49;1004.56;;;21.63;68.76
54144;BME280;40050;47.324;18.792;2023-06-24T01:30:34;1004.67;;;21.57;69.01
54144;BME280;40050;47.324;18.792;2023-06-24T01:32:47;1004.57;;;21.57;68.43
54144;BME280;40050;47.324;18.792;2023-06-24T01:35:25;1004.45;;;21.52;68.30
54144;BME280;40050;47.324;18.792;2023-06-24T01:37:12;1004.40;;;21.46;68.56
54144;BME280;40050;47.324;18.792;2023-06-24T01:39:15;1004.47;;;21.54;68.65
54144;BME280;40050;47.324;18.792;2023-06-24T01:41:18;1004.47;;;21.50;68.77
54144;BME280;40050;47.324;18.792;2023-06-24T01:43:21;1004.48;;;21.51;68.69
54144;BME280;40050;47.324;18.792;2023-06-24T01:45:25;1004.45;;;21.50;68.69
54144;BME280;40050;47.324;18.792;2023-06-24T01:47:27;1004.40;;;21.50;68.65
54144;BME280;40050;47.324;18.792;2023-06-24T01:49:29;1004.35;;;21.50;68.40
54144;BME280;40050;47.324;18.792;2023-06-24T01:51:31;1004.35;;;21.47;68.05
54144;BME280;40050;47.324;18.792;2023-06-24T01:53:34;1004.42;;;21.47;67.90
54144;BME280;40050;47.324;18.792;2023-06-24T01:55:37;1004.35;;;21.32;67.98
54144;BME280;40050;47.324;18.792;2023-06-24T01:57:39;1004.50;;;21.40;67.43
54144;BME280;40050;47.324;18.792;2023-06-24T01:59:41;1004.56;;;21.36;67.69
54144;BME280;40050;47.324;18.792;2023-06-24T02:01:43;1004.39;;;21.24;67.34
54144;BME280;40050;47.324;18.792;2023-06-24T02:03:45;1004.55;;;21.34;67.14
54144;BME280;40050;47.324;18.792;2023-06-24T02:05:47;1004.49;;;21.32;67.50
54144;BME280;40050;47.324;18.792;2023-06-24T02:07:49;1004.49;;;21.31;67.71
54144;BME280;40050;47.324;18.792;2023-06-24T02:09:51;1004.46;;;21.30;67.53
54144;BME280;40050;47.324;18.792;2023-06-24T02:11:53;1004.44;;;21.28;67.55
54144;BME280;40050;47.324;18.792;2023-06-24T02:13:54;1004.47;;;21.24;67.75
54144;BME280;40050;47.324;18.792;2023-06-24T02:15:55;1004.47;;;21.23;67.74
54144;BME280;40050;47.324;18.792;2023-06-24T02:17:56;1004.48;;;21.15;67.75
54144;BME280;40050;47.324;18.792;2023-06-24T02:19:58;1004.50;;;21.16;67.83
54144;BME280;40050;47.324;18.792;2023-06-24T02:22:00;1004.59;;;21.17;67.86
54144;BME280;40050;47.324;18.792;2023-06-24T02:24:02;1004.51;;;21.11;67.77
54144;BME280;40050;47.324;18.792;2023-06-24T02:26:04;1004.55;;;21.10;67.95
54144;BME280;40050;47.324;18.792;2023-06-24T02:28:06;1004.46;;;21.08;67.78
54144;BME280;40050;47.324;18.792;2023-06-24T02:30:07;1004.32;;;21.09;67.71
54144;BME280;40050;47.324;18.792;2023-06-24T02:32:09;1004.29;;;21.05;67.97
54144;BME280;40050;47.324;18.792;2023-06-24T02:34:10;1004.31;;;21.02;68.36
54144;BME280;40050;47.324;18.792;2023-06-24T02:36:11;1004.29;;;20.97;68.35
54144;BME280;40050;47.324;18.792;2023-06-24T02:38:12;1004.39;;;20.99;68.26
54144;BME280;40050;47.324;18.792;2023-06-24T02:40:13;1004.53;;;20.92;68.24
54144;BME280;40050;47.324;18.792;2023-06-24T02:42:14;1004.67;;;20.93;68.23
54144;BME280;40050;47.324;18.792;2023-06-24T02:44:15;1004.66;;;20.90;68.58
54144;BME280;40050;47.324;18.792;2023-06-24T02:46:16;1004.69;;;20.83;68.82
54144;BME280;40050;47.324;18.792;2023-06-24T02:48:17;1004.65;;;20.83;68.97
54144;BME280;40050;47.324;18.792;2023-06-24T02:50:20;1004.68;;;20.85;68.74
54144;BME280;40050;47.324;18.792;2023-06-24T02:52:21;1004.72;;;20.77;68.95
54144;BME280;40050;47.324;18.792;2023-06-24T02:54:22;1004.69;;;20.75;69.25
54144;BME280;40050;47.324;18.792;2023-06-24T02:56:24;1004.77;;;20.72;69.52
54144;BME280;40050;47.324;18.792;2023-06-24T02:58:26;1004.84;;;20.77;69.33
54144;BME280;40050;47.324;18.792;2023-06-24T03:00:28;1004.90;;;20.75;69.13
54144;BME280;40050;47.324;18.792;2023-06-24T03:02:28;1004.79;;;20.71;69.25
54144;BME280;40050;47.324;18.792;2023-06-24T03:04:29;1004.73;;;20.72;69.21
54144;BME280;40050;47.324;18.792;2023-06-24T03:06:31;1004.68;;;20.70;69.26
54144;BME280;40050;47.324;18.792;2023-06-24T03:08:33;1004.57;;;20.66;69.16
54144;BME280;40050;47.324;18.792;2023-06-24T03:10:35;1004.54;;;20.67;68.88
54144;BME280;40050;47.324;18.792;2023-06-24T03:12:36;1004.67;;;20.67;69.04
54144;BME280;40050;47.324;18.792;2023-06-24T03:14:37;1004.74;;;20.65;68.70
54144;BME280;40050;47.324;18.792;2023-06-24T03:16:38;1004.69;;;20.57;68.86
54144;BME280;40050;47.324;18.792;2023-06-24T03:18:40;1004.76;;;20.58;69.01
54144;BME280;40050;47.324;18.792;2023-06-24T03:20:41;1004.82;;;20.58;69.00
54144;BME280;40050;47.324;18.792;2023-06-24T03:22:42;1004.87;;;20.54;69.04
54144;BME280;40050;47.324;18.792;2023-06-24T03:24:43;1004.91;;;20.53;69.02
54144;BME280;40050;47.324;18.792;2023-06-24T03:26:44;1004.95;;;20.54;68.92
54144;BME280;40050;47.324;18.792;2023-06-24T03:28:45;1004.86;;;20.50;68.81
54144;BME280;40050;47.324;18.792;2023-06-24T03:30:46;1004.86;;;20.54;68.60
54144;BME280;40050;47.324;18.792;2023-06-24T03:32:47;1004.99;;;20.53;68.64
54144;BME280;40050;47.324;18.792;2023-06-24T03:34:48;1004.89;;;20.48;68.45
54144;BME280;40050;47.324;18.792;2023-06-24T03:36:49;1005.11;;;20.51;68.39
54144;BME280;40050;47.324;18.792;2023-06-24T03:38:50;1005.19;;;20.52;68.29
54144;BME280;40050;47.324;18.792;2023-06-24T03:40:51;1005.16;;;20.47;68.17
54144;BME280;40050;47.324;18.792;2023-06-24T03:42:52;1005.18;;;20.42;68.57
54144;BME280;40050;47.324;18.792;2023-06-24T03:44:53;1005.18;;;20.45;68.22
54144;BME280;40050;47.324;18.792;2023-06-24T03:46:54;1005.25;;;20.41;68.38
54144;BME280;40050;47.324;18.792;2023-06-24T03:48:55;1005.28;;;20.45;67.89
54144;BME280;40050;47.324;18.792;2023-06-24T03:50:55;1005.25;;;20.45;67.83
54144;BME280;40050;47.324;18.792;2023-06-24T03:52:56;1005.22;;;20.46;67.76
54144;BME280;40050;47.324;18.792;2023-06-24T03:54:57;1005.24;;;20.42;67.90
54144;BME280;40050;47.324;18.792;2023-06-24T03:56:58;1005.22;;;20.36;68.06
54144;BME280;40050;47.324;18.792;2023-06-24T03:58:59;1005.43;;;20.47;67.87
54144;BME280;40050;47.324;18.792;2023-06-24T04:01:02;1005.44;;;20.45;67.79
54144;BME280;40050;47.324;18.792;2023-06-24T04:03:03;1005.44;;;20.44;68.09
54144;BME280;40050;47.324;18.792;2023-06-24T04:05:04;1005.30;;;20.36;68.09
54144;BME280;40050;47.324;18.792;2023-06-24T04:07:05;1005.34;;;20.41;67.87
54144;BME280;40050;47.324;18.792;2023-06-24T04:09:06;1005.46;;;20.46;67.54
54144;BME280;40050;47.324;18.792;2023-06-24T04:11:07;1005.46;;;20.49;67.44
54144;BME280;40050;47.324;18.792;2023-06-24T04:13:08;1005.47;;;20.43;67.35
54144;BME280;40050;47.324;18.792;2023-06-24T04:15:09;1005.54;;;20.44;67.57
54144;BME280;40050;47.324;18.792;2023-06-24T04:17:10;1005.53;;;20.42;67.74
54144;BME280;40050;47.324;18.792;2023-06-24T04:19:11;1005.35;;;20.33;67.72
54144;BME280;40050;47.324;18.792;2023-06-24T04:21:12;1005.63;;;20.46;67.49
54144;BME280;40050;47.324;18.792;2023-06-24T04:23:13;1005.64;;;20.46;67.47
54144;BME280;40050;47.324;18.792;2023-06-24T04:25:14;1005.73;;;20.51;67.95
54144;BME280;40050;47.324;18.792;2023-06-24T04:27:14;1005.65;;;20.57;67.57
54144;BME280;40050;47.324;18.792;2023-06-24T04:29:16;1005.56;;;20.60;67.22
54144;BME280;40050;47.324;18.792;2023-06-24T04:31:16;1005.54;;;20.61;67.44
54144;BME280;40050;47.324;18.792;2023-06-24T04:33:18;1005.48;;;20.62;67.46
54144;BME280;40050;47.324;18.792;2023-06-24T04:35:19;1005.42;;;20.64;67.41
54144;BME280;40050;47.324;18.792;2023-06-24T04:37:19;1005.55;;;20.68;67.34
54144;BME280;40050;47.324;18.792;2023-06-24T04:39:21;1005.71;;;20.74;67.31
54144;BME280;40050;47.324;18.792;2023-06-24T04:41:21;1005.70;;;20.76;67.05
54144;BME280;40050;47.324;18.792;2023-06-24T04:43:22;1005.62;;;20.78;66.69
54144;BME280;40050;47.324;18.792;2023-06-24T04:45:23;1005.66;;;20.86;67.00
54144;BME280;40050;47.324;18.792;2023-06-24T04:47:24;1005.71;;;20.90;66.96
54144;BME280;40050;47.324;18.792;2023-06-24T04:49:25;1005.57;;;20.96;67.11
54144;BME280;40050;47.324;18.792;2023-06-24T04:51:26;1005.32;;;20.88;66.47
54144;BME280;40050;47.324;18.792;2023-06-24T04:53:27;1005.63;;;21.13;66.17
54144;BME280;40050;47.324;18.792;2023-06-24T04:55:28;1005.61;;;21.23;66.03
54144;BME280;40050;47.324;18.792;2023-06-24T04:57:30;1005.67;;;21.33;65.21
54144;BME280;40050;47.324;18.792;2023-06-24T04:59:31;1005.71;;;21.39;65.50
54144;BME280;40050;47.324;18.792;2023-06-24T05:01:32;1005.60;;;21.47;64.68
54144;BME280;40050;47.324;18.792;2023-06-24T05:03:33;1005.74;;;21.61;64.87
54144;BME280;40050;47.324;18.792;2023-06-24T05:05:34;1005.68;;;21.71;63.56
54144;BME280;40050;47.324;18.792;2023-06-24T05:07:35;1005.67;;;21.88;63.99
54144;BME280;40050;47.324;18.792;2023-06-24T05:09:35;1005.65;;;21.98;63.22
54144;BME280;40050;47.324;18.792;2023-06-24T05:11:36;1005.61;;;22.08;62.79
54144;BME280;40050;47.324;18.792;2023-06-24T05:13:37;1005.56;;;22.17;63.04
54144;BME280;40050;47.324;18.792;2023-06-24T05:15:38;1005.64;;;22.30;62.06
54144;BME280;40050;47.324;18.792;2023-06-24T05:17:39;1005.62;;;22.35;62.48
54144;BME280;40050;47.324;18.792;2023-06-24T05:19:40;1005.70;;;22.40;61.62
54144;BME280;40050;47.324;18.792;2023-06-24T05:21:41;1005.62;;;22.48;61.27
54144;BME280;40050;47.324;18.792;2023-06-24T05:23:42;1005.61;;;22.53;60.39
54144;BME280;40050;47.324;18.792;2023-06-24T05:25:43;1005.58;;;22.56;61.10
54144;BME280;40050;47.324;18.792;2023-06-24T05:27:44;1005.71;;;22.66;61.80
54144;BME280;40050;47.324;18.792;2023-06-24T05:29:45;1005.74;;;22.74;60.78
54144;BME280;40050;47.324;18.792;2023-06-24T05:31:47;1005.74;;;22.72;59.79
54144;BME280;40050;47.324;18.792;2023-06-24T05:33:48;1005.77;;;22.74;60.44
54144;BME280;40050;47.324;18.792;2023-06-24T05:35:49;1005.69;;;22.72;59.96
54144;BME280;40050;47.324;18.792;2023-06-24T05:37:50;1005.71;;;22.80;60.61
54144;BME280;40050;47.324;18.792;2023-06-24T05:39:51;1005.66;;;22.84;60.07
54144;BME280;40050;47.324;18.792;2023-06-24T05:41:52;1005.67;;;22.88;60.00
54144;BME280;40050;47.324;18.792;2023-06-24T05:44:08;1005.80;;;23.01;60.18
54144;BME280;40050;47.324;18.792;2023-06-24T05:46:09;1005.85;;;23.11;59.99
54144;BME280;40050;47.324;18.792;2023-06-24T05:48:10;1005.60;;;23.03;60.35
54144;BME280;40050;47.324;18.792;2023-06-24T05:50:11;1005.88;;;23.28;59.46
54144;BME280;40050;47.324;18.792;2023-06-24T05:52:12;1005.98;;;23.32;59.25
54144;BME280;40050;47.324;18.792;2023-06-24T05:54:15;1006.05;;;23.31;58.65
54144;BME280;40050;47.324;18.792;2023-06-24T05:56:16;1006.03;;;23.28;58.46
54144;BME280;40050;47.324;18.792;2023-06-24T05:58:17;1005.98;;;23.29;58.28
54144;BME280;40050;47.324;18.792;2023-06-24T06:00:18;1005.98;;;23.34;58.62
54144;BME280;40050;47.324;18.792;2023-06-24T06:02:19;1006.00;;;23.36;59.00
54144;BME280;40050;47.324;18.792;2023-06-24T06:04:20;1005.97;;;23.38;58.97
54144;BME280;40050;47.324;18.792;2023-06-24T06:06:21;1006.01;;;23.49;59.03
54144;BME280;40050;47.324;18.792;2023-06-24T06:08:22;1006.02;;;23.52;59.12
54144;BME280;40050;47.324;18.792;2023-06-24T06:10:23;1006.15;;;23.68;59.13
54144;BME280;40050;47.324;18.792;2023-06-24T06:12:24;1006.06;;;23.76;58.47
54144;BME280;40050;47.324;18.792;2023-06-24T06:14:24;1006.04;;;23.76;57.70
54144;BME280;40050;47.324;18.792;2023-06-24T06:16:27;1006.13;;;23.83;57.97
54144;BME280;40050;47.324;18.792;2023-06-24T06:18:28;1006.09;;;23.87;57.89
54144;BME280;40050;47.324;18.792;2023-06-24T06:20:29;1006.10;;;23.90;57.61
54144;BME280;40050;47.324;18.792;2023-06-24T06:22:31;1006.25;;;24.10;57.60
54144;BME280;40050;47.324;18.792;2023-06-24T06:24:33;1006.20;;;24.21;57.45
54144;BME280;40050;47.324;18.792;2023-06-24T06:26:34;1006.26;;;24.34;57.61
54144;BME280;40050;47.324;18.792;2023-06-24T06:28:35;1006.18;;;24.44;57.88
54144;BME280;40050;47.324;18.792;2023-06-24T06:30:36;1006.15;;;24.57;57.28
54144;BME280;40050;47.324;18.792;2023-06-24T06:32:37;1006.18;;;24.76;57.29
54144;BME280;40050;47.324;18.792;2023-06-24T06:34:38;1006.18;;;24.94;56.98
54144;BME280;40050;47.324;18.792;2023-06-24T06:36:39;1006.04;;;25.03;56.42
54144;BME280;40050;47.324;18.792;2023-06-24T06:38:40;1006.13;;;25.24;55.90
54144;BME280;40050;47.324;18.792;2023-06-24T06:40:41;1006.15;;;25.35;55.30
54144;BME280;40050;47.324;18.792;2023-06-24T06:42:42;1006.11;;;25.47;54.95
54144;BME280;40050;47.324;18.792;2023-06-24T06:44:43;1006.13;;;25.52;54.36
54144;BME280;40050;47.324;18.792;2023-06-24T06:46:44;1006.16;;;25.60;54.36
54144;BME280;40050;47.324;18.792;2023-06-24T06:48:45;1006.17;;;25.71;53.25
54144;BME280;40050;47.324;18.792;2023-06-24T06:50:46;1006.23;;;25.76;53.56
54144;BME280;40050;47.324;18.792;2023-06-24T06:52:47;1006.25;;;25.84;53.51
54144;BME280;40050;47.324;18.792;2023-06-24T06:54:48;1006.27;;;25.93;52.98
54144;BME280;40050;47.324;18.792;2023-06-24T06:56:49;1006.22;;;25.99;52.72
54144;BME280;40050;47.324;18.792;2023-06-24T06:58:51;1006.18;;;26.07;52.11
54144;BME280;40050;47.324;18.792;2023-06-24T07:00:55;1006.15;;;26.17;52.95
54144;BME280;40050;47.324;18.792;2023-06-24T07:02:56;1006.19;;;26.33;52.99
54144;BME280;40050;47.324;18.792;2023-06-24T07:04:57;1006.15;;;26.48;52.49
54144;BME280;40050;47.324;18.792;2023-06-24T07:07:01;1006.13;;;26.57;51.30
54144;BME280;40050;47.324;18.792;2023-06-24T07:09:02;1006.06;;;26.59;51.42
54144;BME280;40050;47.324;18.792;2023-06-24T07:11:03;1006.10;;;26.72;51.19
54144;BME280;40050;47.324;18.792;2023-06-24T07:13:05;1006.11;;;26.73;50.87
54144;BME280;40050;47.324;18.792;2023-06-24T07:15:09;1006.20;;;26.82;51.13
54144;BME280;40050;47.324;18.792;2023-06-24T07:17:10;1006.23;;;26.93;51.03
54144;BME280;40050;47.324;18.792;2023-06-24T07:19:14;1006.21;;;27.06;50.96
54144;BME280;40050;47.324;18.792;2023-06-24T07:21:15;1006.16;;;27.17;50.03
54144;BME280;40050;47.324;18.792;2023-06-24T07:23:16;1006.26;;;27.27;49.93
54144;BME280;40050;47.324;18.792;2023-06-24T07:25:17;1006.23;;;27.38;49.56
54144;BME280;40050;47.324;18.792;2023-06-24T07:27:18;1006.30;;;27.52;49.12
54144;BME280;40050;47.324;18.792;2023-06-24T07:29:20;1006.39;;;27.62;49.05
54144;BME280;40050;47.324;18.792;2023-06-24T07:31:27;1006.46;;;27.73;48.93
54144;BME280;40050;47.324;18.792;2023-06-24T07:33:28;1006.45;;;27.79;48.66
54144;BME280;40050;47.324;18.792;2023-06-24T07:35:29;1006.43;;;27.85;48.41
54144;BME280;40050;47.324;18.792;2023-06-24T07:37:31;1006.43;;;27.90;48.79
54144;BME280;40050;47.324;18.792;2023-06-24T07:39:35;1006.29;;;27.95;48.90
54144;BME280;40050;47.324;18.792;2023-06-24T07:41:36;1006.41;;;28.06;48.07
54144;BME280;40050;47.324;18.792;2023-06-24T07:43:46;1006.44;;;28.10;47.86
54144;BME280;40050;47.324;18.792;2023-06-24T07:45:47;1006.21;;;27.89;48.07
54144;BME280;40050;47.324;18.792;2023-06-24T07:47:48;1006.41;;;27.99;47.47
54144;BME280;40050;47.324;18.792;2023-06-24T07:49:50;1006.52;;;27.99;47.50
54144;BME280;40050;47.324;18.792;2023-06-24T07:52:00;1006.48;;;28.04;47.96
54144;BME280;40050;47.324;18.792;2023-06-24T07:54:01;1006.48;;;28.17;48.00
54144;BME280;40050;47.324;18.792;2023-06-24T07:56:02;1006.53;;;28.32;47.48
54144;BME280;40050;47.324;18.792;2023-06-24T07:58:04;1006.46;;;28.41;47.21
54144;BME280;40050;47.324;18.792;2023-06-24T08:00:08;1006.45;;;28.52;47.42
54144;BME280;40050;47.324;18.792;2023-06-24T08:02:18;1006.46;;;28.60;47.34
54144;BME280;40050;47.324;18.792;2023-06-24T08:04:24;1006.45;;;28.61;47.04
54144;BME280;40050;47.324;18.792;2023-06-24T08:06:25;1006.53;;;28.73;46.71
54144;BME280;40050;47.324;18.792;2023-06-24T08:08:26;1006.56;;;28.85;45.97
54144;BME280;40050;47.324;18.792;2023-06-24T08:10:27;1006.60;;;28.94;46.32
54144;BME280;40050;47.324;18.792;2023-06-24T08:12:28;1006.55;;;29.01;46.45
54144;BME280;40050;47.324;18.792;2023-06-24T08:14:29;1006.56;;;29.11;45.98
54144;BME280;40050;47.324;18.792;2023-06-24T08:16:32;1006.62;;;29.13;46.14
54144;BME280;40050;47.324;18.792;2023-06-24T08:18:33;1006.59;;;29.07;45.33
54144;BME280;40050;47.324;18.792;2023-06-24T08:20:34;1006.53;;;29.06;45.57
54144;BME280;40050;47.324;18.792;2023-06-24T08:25:19;1006.47;;;28.68;44.95
54144;BME280;40050;47.324;18.792;2023-06-24T08:27:20;1006.77;;;28.71;45.64
54144;BME280;40050;47.324;18.792;2023-06-24T08:29:33;1006.83;;;28.65;45.96
54144;BME280;40050;47.324;18.792;2023-06-24T08:31:35;1006.73;;;28.54;46.01
54144;BME280;40050;47.324;18.792;2023-06-24T08:33:36;1006.71;;;28.47;46.17
54144;BME280;40050;47.324;18.792;2023-06-24T08:35:43;1006.70;;;28.47;46.34
54144;BME280;40050;47.324;18.792;2023-06-24T08:37:44;1006.78;;;28.45;46.45
54144;BME280;40050;47.324;18.792;2023-06-24T08:39:54;1006.76;;;28.44;46.91
54144;BME280;40050;47.324;18.792;2023-06-24T08:44:23;1006.75;;;28.45;46.90
54144;BME280;40050;47.324;18.792;2023-06-24T08:46:39;1006.69;;;28.45;46.49
54144;BME280;40050;47.324;18.792;2023-06-24T08:48:49;1006.65;;;28.37;46.90
54144;BME280;40050;47.324;18.792;2023-06-24T08:50:56;1006.63;;;28.36;47.32
54144;BME280;40050;47.324;18.792;2023-06-24T08:52:58;1006.70;;;28.40;47.13
54144;BME280;40050;47.324;18.792;2023-06-24T08:55:04;1006.71;;;28.44;47.40
54144;BME280;40050;47.324;18.792;2023-06-24T08:57:08;1006.54;;;28.41;47.30
54144;BME280;40050;47.324;18.792;2023-06-24T08:59:10;1006.63;;;28.53;46.88
54144;BME280;40050;47.324;18.792;2023-06-24T09:01:11;1006.67;;;28.50;46.97
54144;BME280;40050;47.324;18.792;2023-06-24T09:03:19;1006.67;;;28.57;46.61
54144;BME280;40050;47.324;18.792;2023-06-24T09:05:20;1006.70;;;28.71;46.81
54144;BME280;40050;47.324;18.792;2023-06-24T09:07:27;1006.75;;;28.76;46.83
54144;BME280;40050;47.324;18.792;2023-06-24T09:09:31;1006.67;;;28.85;46.67
54144;BME280;40050;47.324;18.792;2023-06-24T09:11:32;1006.69;;;28.95;46.14
54144;BME280;40050;47.324;18.792;2023-06-24T09:13:41;1006.69;;;29.04;46.15
54144;BME280;40050;47.324;18.792;2023-06-24T09:15:42;1006.45;;;28.91;45.96
54144;BME280;40050;47.324;18.792;2023-06-24T09:20:03;1006.63;;;29.05;45.69
54144;BME280;40050;47.324;18.792;2023-06-24T09:22:06;1006.64;;;28.96;45.40
54144;BME280;40050;47.324;18.792;2023-06-24T09:26:34;1006.40;;;28.58;45.32
54144;BME280;40050;47.324;18.792;2023-06-24T09:28:35;1006.53;;;28.56;45.67
54144;BME280;40050;47.324;18.792;2023-06-24T09:32:58;1006.57;;;28.40;46.13
54144;BME280;40050;47.324;18.792;2023-06-24T09:35:02;1006.58;;;28.38;46.66
54144;BME280;40050;47.324;18.792;2023-06-24T09:37:03;1006.60;;;28.50;46.42
54144;BME280;40050;47.324;18.792;2023-06-24T09:39:07;1006.58;;;28.46;47.27
54144;BME280;40050;47.324;18.792;2023-06-24T09:41:09;1006.61;;;28.58;46.23
54144;BME280;40050;47.324;18.792;2023-06-24T09:43:10;1006.64;;;28.56;46.13
54144;BME280;40050;47.324;18.792;2023-06-24T09:45:27;1006.68;;;28.54;46.32
54144;BME280;40050;47.324;18.792;2023-06-24T09:47:28;1006.57;;;28.50;46.06
54144;BME280;40050;47.324;18.792;2023-06-24T09:49:30;1006.69;;;28.48;46.12
54144;BME280;40050;47.324;18.792;2023-06-24T09:51:37;1006.63;;;28.37;46.21
54144;BME280;40050;47.324;18.792;2023-06-24T09:53:47;1006.58;;;28.27;47.09
54144;BME280;40050;47.324;18.792;2023-06-24T09:55:58;1006.58;;;28.24;46.93
54144;BME280;40050;47.324;18.792;2023-06-24T09:58:11;1006.57;;;28.20;47.63
54144;BME280;40050;47.324;18.792;2023-06-24T10:00:14;1006.50;;;28.19;47.69
54144;BME280;40050;47.324;18.792;2023-06-24T10:02:17;1006.43;;;28.26;47.19
54144;BME280;40050;47.324;18.792;2023-06-24T10:04:24;1006.35;;;28.27;48.09
54144;BME280;40050;47.324;18.792;2023-06-24T10:08:47;1006.44;;;28.32;47.72
54144;BME280;40050;47.324;18.792;2023-06-24T10:10:48;1006.43;;;28.43;47.76
54144;BME280;40050;47.324;18.792;2023-06-24T10:12:49;1006.42;;;28.55;48.63
54144;BME280;40050;47.324;18.792;2023-06-24T10:14:59;1006.37;;;28.74;47.83
54144;BME280;40050;47.324;18.792;2023-06-24T10:17:06;1006.38;;;28.86;47.19
54144;BME280;40050;47.324;18.792;2023-06-24T10:19:27;1006.35;;;28.91;47.10
54144;BME280;40050;47.324;18.792;2023-06-24T10:21:43;1006.36;;;28.95;47.08
54144;BME280;40050;47.324;18.792;2023-06-24T10:23:39;1006.37;;;29.02;47.41
54144;BME280;40050;47.324;18.792;2023-06-24T10:25:41;1006.27;;;29.10;46.57
54144;BME280;40050;47.324;18.792;2023-06-24T10:27:42;1006.35;;;29.18;47.52
54144;BME280;40050;47.324;18.792;2023-06-24T10:29:46;1006.30;;;29.20;47.41
54144;BME280;40050;47.324;18.792;2023-06-24T10:31:50;1006.26;;;29.34;46.88
54144;BME280;40050;47.324;18.792;2023-06-24T10:33:54;1006.24;;;29.36;46.50
54144;BME280;40050;47.324;18.792;2023-06-24T10:35:55;1006.28;;;29.34;46.24
54144;BME280;40050;47.324;18.792;2023-06-24T10:40:15;1006.32;;;29.20;46.32
54144;BME280;40050;47.324;18.792;2023-06-24T10:42:32;1006.31;;;29.21;46.11
54144;BME280;40050;47.324;18.792;2023-06-24T10:44:47;1006.35;;;29.21;46.65
54144;BME280;40050;47.324;18.792;2023-06-24T10:46:53;1006.25;;;29.24;46.66
54144;BME280;40050;47.324;18.792;2023-06-24T10:48:54;1006.38;;;29.31;46.96
54144;BME280;40050;47.324;18.792;2023-06-24T10:50:55;1006.42;;;29.42;46.20
54144;BME280;40050;47.324;18.792;2023-06-24T10:52:56;1006.38;;;29.45;45.83
54144;BME280;40050;47.324;18.792;2023-06-24T10:54:58;1006.37;;;29.42;46.01
54144;BME280;40050;47.324;18.792;2023-06-24T10:56:59;1006.37;;;29.48;46.17
54144;BME280;40050;47.324;18.792;2023-06-24T10:59:01;1006.40;;;29.43;45.72
54144;BME280;40050;47.324;18.792;2023-06-24T11:01:08;1006.39;;;29.41;46.04
54144;BME280;40050;47.324;18.792;2023-06-24T11:03:16;1006.29;;;29.44;46.71
54144;BME280;40050;47.324;18.792;2023-06-24T11:05:17;1006.42;;;29.46;46.51
54144;BME280;40050;47.324;18.792;2023-06-24T11:07:19;1006.35;;;29.43;46.33
54144;BME280;40050;47.324;18.792;2023-06-24T11:09:20;1006.45;;;29.46;46.02
54144;BME280;40050;47.324;18.792;2023-06-24T11:11:22;1006.38;;;29.53;44.81